createdAt,value
2022-10-03T00:01:59.503Z,17.13
2022-10-03T00:05:12.482Z,17.60
2022-10-03T00:08:22.027Z,15.82
2022-10-03T00:11:31.182Z,18.33
2022-10-03T00:14:43.343Z,18.00
2022-10-03T00:17:52.840Z,18.02
2022-10-03T00:21:11.932Z,16.20
2022-10-03T00:24:23.001Z,17.88
2022-10-03T00:27:35.287Z,18.00
2022-10-03T00:30:57.660Z,16.45
2022-10-03T00:34:06.374Z,19.42
2022-10-03T00:40:31.482Z,17.33
2022-10-03T00:43:57.307Z,21.23
2022-10-03T00:47:25.446Z,19.25
2022-10-03T00:50:48.273Z,16.15
2022-10-03T00:54:03.397Z,19.30
2022-10-03T00:57:15.632Z,17.42
2022-10-03T01:00:23.182Z,16.73
2022-10-03T01:03:39.020Z,17.70
2022-10-03T01:06:47.882Z,16.38
2022-10-03T01:10:02.824Z,13.90
2022-10-03T01:13:24.338Z,16.42
2022-10-03T01:16:36.526Z,20.38
2022-10-03T01:20:03.047Z,16.77
2022-10-03T01:23:20.990Z,15.57
2022-10-03T01:26:32.832Z,19.98
2022-10-03T01:30:07.517Z,19.23
2022-10-03T01:33:19.140Z,17.17
2022-10-03T01:36:28.764Z,18.48
2022-10-03T01:39:38.244Z,16.67
2022-10-03T01:42:48.164Z,16.35
2022-10-03T01:46:00.346Z,20.55
2022-10-03T01:49:12.284Z,17.63
2022-10-03T01:52:22.669Z,16.63
2022-10-03T01:55:35.290Z,15.27
2022-10-03T01:58:44.358Z,17.75
2022-10-03T02:01:54.695Z,18.02
2022-10-03T02:05:06.563Z,13.98
2022-10-03T02:08:19.397Z,14.98
2022-10-03T02:11:31.299Z,12.75
2022-10-03T02:14:42.568Z,15.50
2022-10-03T02:17:52.730Z,12.88
2022-10-03T02:21:03.443Z,14.25
2022-10-03T02:24:16.698Z,11.80
2022-10-03T02:27:34.870Z,14.00
2022-10-03T02:30:43.698Z,15.52
2022-10-03T02:34:06.396Z,12.10
2022-10-03T02:37:38.098Z,13.48
2022-10-03T02:40:57.279Z,11.52
2022-10-03T02:44:21.750Z,18.27
2022-10-03T02:48:08.368Z,10.82
2022-10-03T02:51:29.938Z,10.45
2022-10-03T02:54:52.936Z,11.43
2022-10-03T02:58:12.890Z,11.00
2022-10-03T03:01:33.750Z,13.05
2022-10-03T03:05:01.040Z,10.00
2022-10-03T03:08:24.559Z,12.77
2022-10-03T03:11:47.923Z,14.20
2022-10-03T03:15:11.296Z,11.95
2022-10-03T03:18:26.132Z,10.90
2022-10-03T03:21:36.421Z,9.88
2022-10-03T03:24:49.646Z,9.60
2022-10-03T03:28:02.331Z,11.13
2022-10-03T03:31:12.540Z,11.32
2022-10-03T03:34:24.127Z,11.00
2022-10-03T03:37:33.442Z,11.75
2022-10-03T03:40:43.072Z,10.73
2022-10-03T03:43:57.419Z,12.25
2022-10-03T03:47:15.018Z,11.25
2022-10-03T03:50:28.739Z,9.63
2022-10-03T03:53:45.378Z,11.00
2022-10-03T03:57:02.156Z,10.18
2022-10-03T04:00:10.625Z,10.15
2022-10-03T04:03:28.227Z,11.07
2022-10-03T04:06:43.752Z,12.03
2022-10-03T04:09:54.788Z,12.88
2022-10-03T04:13:08.056Z,11.45
2022-10-03T04:16:45.182Z,13.30
2022-10-03T04:19:56.412Z,14.73
2022-10-03T04:23:12.397Z,14.00
2022-10-03T04:26:25.302Z,16.85
2022-10-03T04:29:43.049Z,18.10
2022-10-03T04:32:58.793Z,14.82
2022-10-03T04:36:24.161Z,18.67
2022-10-03T04:39:37.911Z,20.77
2022-10-03T04:42:50.203Z,15.75
2022-10-03T04:46:04.084Z,17.85
2022-10-03T04:49:14.795Z,20.45
2022-10-03T04:52:22.495Z,23.42
2022-10-03T04:55:35.629Z,20.70
2022-10-03T04:58:43.630Z,21.63
2022-10-03T05:01:50.581Z,25.10
2022-10-03T05:05:06.728Z,20.20
2022-10-03T05:08:19.380Z,31.27
2022-10-03T05:11:33.879Z,19.92
2022-10-03T05:14:51.365Z,22.58
2022-10-03T05:18:05.059Z,19.67
2022-10-03T05:21:16.355Z,16.60
2022-10-03T05:24:24.895Z,15.88
2022-10-03T05:27:36.931Z,18.17
2022-10-03T05:30:50.446Z,17.48
2022-10-03T05:33:57.416Z,21.70
2022-10-03T05:37:09.155Z,15.43
2022-10-03T05:40:17.801Z,17.08
2022-10-03T05:43:36.659Z,15.32
2022-10-03T05:46:44.596Z,19.63
2022-10-03T05:49:58.778Z,19.30
2022-10-03T05:53:11.580Z,17.33
2022-10-03T05:56:22.109Z,16.60
2022-10-03T05:59:45.115Z,17.40
2022-10-03T06:03:13.874Z,17.80
2022-10-03T06:06:25.057Z,15.02
2022-10-03T06:09:52.934Z,15.18
2022-10-03T06:13:10.133Z,12.18
2022-10-03T06:16:25.209Z,13.02
2022-10-03T06:19:36.958Z,12.75
2022-10-03T06:23:06.257Z,12.07
2022-10-03T06:26:29.248Z,18.75
2022-10-03T06:29:55.147Z,12.23
2022-10-03T06:33:15.831Z,14.25
2022-10-03T06:36:39.410Z,11.57
2022-10-03T06:40:08.927Z,15.52
2022-10-03T06:43:39.678Z,16.48
2022-10-03T06:47:09.140Z,18.95
2022-10-03T06:50:31.933Z,14.95
2022-10-03T06:53:59.679Z,15.52
2022-10-03T06:57:14.782Z,16.05
2022-10-03T07:00:21.235Z,11.10
2022-10-03T07:03:45.848Z,12.98
2022-10-03T07:07:07.742Z,14.32
2022-10-03T07:10:27.428Z,17.80
2022-10-03T07:13:53.122Z,17.67
2022-10-03T07:17:15.024Z,16.85
2022-10-03T07:20:43.572Z,15.55
2022-10-03T07:24:03.964Z,11.50
2022-10-03T07:27:17.264Z,18.25
2022-10-03T07:30:23.074Z,17.02
2022-10-03T07:33:45.905Z,11.25
2022-10-03T07:37:24.324Z,10.45
2022-10-03T07:44:04.313Z,12.40
2022-10-03T07:47:34.097Z,15.18
2022-10-03T07:50:54.209Z,9.27
2022-10-03T07:54:14.368Z,10.75
2022-10-03T07:57:28.454Z,12.85
2022-10-03T08:00:41.047Z,14.50
2022-10-03T08:04:10.212Z,7.93
2022-10-03T08:07:24.075Z,12.40
2022-10-03T08:10:40.994Z,9.73
2022-10-03T08:13:58.857Z,10.63
2022-10-03T08:17:22.573Z,8.48
2022-10-03T08:20:36.512Z,11.60
2022-10-03T08:23:48.224Z,11.38
2022-10-03T08:27:10.386Z,10.32
2022-10-03T08:30:25.899Z,10.65
2022-10-03T08:33:45.239Z,13.80
2022-10-03T08:37:02.886Z,6.32
2022-10-03T08:40:23.016Z,9.20
2022-10-03T08:43:42.843Z,7.90
2022-10-03T08:47:04.358Z,8.43
2022-10-03T08:50:23.382Z,10.05
2022-10-03T08:53:44.503Z,7.95
2022-10-03T08:56:56.974Z,10.32
2022-10-03T09:00:17.953Z,2.15
2022-10-03T09:03:42.856Z,3.90
2022-10-03T09:07:17.648Z,4.70
2022-10-03T09:10:38.270Z,3.95
2022-10-03T09:14:03.678Z,2.25
2022-10-03T09:17:13.403Z,2.70
2022-10-03T09:20:35.596Z,2.63
2022-10-03T09:24:01.472Z,3.88
2022-10-03T09:27:22.149Z,2.75
2022-10-03T09:30:29.658Z,3.45
2022-10-03T09:33:48.350Z,3.47
2022-10-03T09:37:08.440Z,5.20
2022-10-03T09:40:37.440Z,5.00
2022-10-03T09:43:57.261Z,6.18
2022-10-03T09:47:28.400Z,2.80
2022-10-03T09:50:55.528Z,4.53
2022-10-03T09:54:16.874Z,8.13
2022-10-03T09:57:39.150Z,3.92
2022-10-03T10:00:54.800Z,3.78
2022-10-03T10:04:50.248Z,3.40
2022-10-03T10:08:07.997Z,2.60
2022-10-03T10:11:17.728Z,3.60
2022-10-03T10:14:40.406Z,3.60
2022-10-03T10:17:59.034Z,4.78
2022-10-03T10:21:22.054Z,4.95
2022-10-03T10:24:42.370Z,2.92
2022-10-03T10:28:11.812Z,4.60
2022-10-03T10:31:35.820Z,3.60
2022-10-03T10:34:58.377Z,2.00
2022-10-03T10:38:15.888Z,1.75
2022-10-03T10:41:35.974Z,0.80
2022-10-03T10:44:58.166Z,1.52
2022-10-03T10:48:17.154Z,1.30
2022-10-03T10:51:45.149Z,2.42
2022-10-03T10:58:23.764Z,3.30
2022-10-03T11:01:50.508Z,3.85
2022-10-03T11:05:10.512Z,5.03
2022-10-03T11:08:37.581Z,5.05
2022-10-03T11:11:57.524Z,3.90
2022-10-03T11:15:17.560Z,2.53
2022-10-03T11:18:40.603Z,2.60
2022-10-03T11:22:00.315Z,3.40
2022-10-03T11:25:31.821Z,2.38
2022-10-03T11:28:51.850Z,5.53
2022-10-03T11:32:14.520Z,8.15
2022-10-03T11:35:36.738Z,3.17
2022-10-03T11:38:46.941Z,5.70
2022-10-03T11:41:58.843Z,3.60
2022-10-03T11:45:05.442Z,4.03
2022-10-03T11:48:26.599Z,4.18
2022-10-03T11:51:39.906Z,11.93
2022-10-03T11:54:46.612Z,3.58
2022-10-03T11:57:59.294Z,2.35
2022-10-03T12:01:10.781Z,4.47
2022-10-03T12:04:23.450Z,2.42
2022-10-03T12:07:58.460Z,3.83
2022-10-03T12:11:09.644Z,4.55
2022-10-03T12:14:22.903Z,1.80
2022-10-03T12:17:31.804Z,3.85
2022-10-03T12:20:42.484Z,3.80
2022-10-03T12:23:55.915Z,2.28
2022-10-03T12:27:04.789Z,5.00
2022-10-03T12:30:17.232Z,3.42
2022-10-03T12:33:30.012Z,5.30
2022-10-03T12:36:41.433Z,3.45
2022-10-03T12:39:53.976Z,4.82
2022-10-03T12:43:05.190Z,2.45
2022-10-03T12:46:15.898Z,2.17
2022-10-03T12:49:23.302Z,2.20
2022-10-03T12:52:30.758Z,2.75
2022-10-03T12:55:36.790Z,1.10
2022-10-03T12:58:56.584Z,3.00
2022-10-03T13:02:15.820Z,4.45
2022-10-03T13:05:37.412Z,2.35
2022-10-03T13:08:47.256Z,3.85
2022-10-03T13:12:06.732Z,1.48
2022-10-03T13:15:39.258Z,2.47
2022-10-03T13:19:05.621Z,2.65
2022-10-03T13:22:20.945Z,13.25
2022-10-03T13:25:32.380Z,2.95
2022-10-03T13:28:40.130Z,1.08
2022-10-03T13:31:54.221Z,3.00
2022-10-03T13:35:26.373Z,3.25
2022-10-03T13:38:55.600Z,1.10
2022-10-03T13:42:11.351Z,3.38
2022-10-03T13:45:18.337Z,1.63
2022-10-03T13:48:27.435Z,3.08
2022-10-03T13:51:39.834Z,2.90
2022-10-03T13:55:03.744Z,3.13
2022-10-03T13:58:23.578Z,1.50
2022-10-03T14:01:39.882Z,1.42
2022-10-03T14:04:51.535Z,2.00
2022-10-03T14:07:58.592Z,1.67
2022-10-03T14:11:27.215Z,2.50
2022-10-03T14:14:43.953Z,4.35
2022-10-03T14:17:54.657Z,1.50
2022-10-03T14:21:20.718Z,5.15
2022-10-03T14:24:39.594Z,1.85
2022-10-03T14:27:47.509Z,1.63
2022-10-03T14:31:07.345Z,2.60
2022-10-03T14:34:19.885Z,0.80
2022-10-03T14:37:29.095Z,1.70
2022-10-03T14:40:38.781Z,2.55
2022-10-03T14:43:50.887Z,0.80
2022-10-03T14:46:59.012Z,4.15
2022-10-03T14:50:07.954Z,2.75
2022-10-03T14:53:18.499Z,1.60
2022-10-03T14:56:24.858Z,3.60
2022-10-03T14:59:33.153Z,3.65
2022-10-03T15:05:57.961Z,1.83
2022-10-03T15:09:04.261Z,4.05
2022-10-03T15:12:13.082Z,1.00
2022-10-03T15:15:21.175Z,3.80
2022-10-03T15:18:27.512Z,2.65
2022-10-03T15:21:35.595Z,2.15
2022-10-03T15:24:43.041Z,1.20
2022-10-03T15:27:49.825Z,2.20
2022-10-03T15:30:56.436Z,2.22
2022-10-03T15:34:02.337Z,6.38
2022-10-03T15:37:15.909Z,3.20
2022-10-03T15:40:24.821Z,1.83
2022-10-03T15:43:34.695Z,3.42
2022-10-03T15:46:44.690Z,3.75
2022-10-03T15:49:51.705Z,3.10
2022-10-03T15:53:17.810Z,13.25
2022-10-03T15:56:30.098Z,2.08
2022-10-03T16:02:43.463Z,8.00
2022-10-03T16:05:57.900Z,3.35
2022-10-03T16:09:09.990Z,3.20
2022-10-03T16:12:32.569Z,4.30
2022-10-03T16:15:48.468Z,3.20
2022-10-03T16:19:05.984Z,1.30
2022-10-03T16:22:17.614Z,5.78
2022-10-03T16:25:27.205Z,2.08
2022-10-03T16:28:36.321Z,2.55
2022-10-03T16:31:43.728Z,3.17
2022-10-03T16:34:49.902Z,3.17
2022-10-03T16:37:55.466Z,1.00
2022-10-03T16:41:04.191Z,1.65
2022-10-03T16:44:14.580Z,1.75
2022-10-03T16:47:21.941Z,3.35
2022-10-03T16:50:27.985Z,1.88
2022-10-03T16:53:33.313Z,1.17
2022-10-03T16:56:44.027Z,3.90
2022-10-03T16:59:52.277Z,1.40
2022-10-03T17:02:58.209Z,2.42
2022-10-03T17:06:05.030Z,3.00
2022-10-03T17:09:11.134Z,1.55
2022-10-03T17:12:21.558Z,3.28
2022-10-03T17:15:28.796Z,2.30
2022-10-03T17:18:38.599Z,1.25
2022-10-03T17:21:45.124Z,0.80
2022-10-03T17:24:52.634Z,1.13
2022-10-03T17:28:01.817Z,1.38
2022-10-03T17:31:08.315Z,2.13
2022-10-03T17:34:15.731Z,1.15
2022-10-03T17:37:27.417Z,4.03
2022-10-03T17:40:40.481Z,4.35
2022-10-03T17:43:50.941Z,2.65
2022-10-03T17:47:01.145Z,2.10
2022-10-03T17:50:10.441Z,1.73
2022-10-03T17:53:21.914Z,2.05
2022-10-03T17:56:30.036Z,1.60
2022-10-03T17:59:42.504Z,1.33
2022-10-03T18:02:49.653Z,4.25
2022-10-03T18:05:56.004Z,2.10
2022-10-03T18:09:02.279Z,4.00
2022-10-03T18:12:17.334Z,1.60
2022-10-03T18:15:37.813Z,2.88
2022-10-03T18:18:57.832Z,3.42
2022-10-03T18:22:09.671Z,2.40
2022-10-03T18:25:30.417Z,14.23
2022-10-03T18:28:37.234Z,4.32
2022-10-03T18:31:45.566Z,4.63
2022-10-03T18:38:04.739Z,2.83
2022-10-03T18:41:10.504Z,4.40
2022-10-03T18:44:18.853Z,2.85
2022-10-03T18:47:26.794Z,1.10
2022-10-03T18:50:33.074Z,1.48
2022-10-03T18:53:44.459Z,2.55
2022-10-03T18:56:50.782Z,1.75
2022-10-03T18:59:58.054Z,3.08
2022-10-03T19:03:05.654Z,1.55
2022-10-03T19:06:19.381Z,4.13
2022-10-03T19:09:29.088Z,2.53
2022-10-03T19:12:35.686Z,4.78
2022-10-03T19:15:44.677Z,2.97
2022-10-03T19:18:53.141Z,1.45
2022-10-03T19:21:58.825Z,2.63
2022-10-03T19:25:08.139Z,2.72
2022-10-03T19:28:17.392Z,1.38
2022-10-03T19:31:24.730Z,2.33
2022-10-03T19:34:35.267Z,2.38
2022-10-03T19:37:45.745Z,2.15
2022-10-03T19:40:59.292Z,1.73
2022-10-03T19:44:08.624Z,1.50
2022-10-03T19:47:18.157Z,2.17
2022-10-03T19:50:24.830Z,3.97
2022-10-03T19:53:30.018Z,3.25
2022-10-03T19:56:38.343Z,2.25
2022-10-03T19:59:46.979Z,2.53
2022-10-03T20:06:20.872Z,2.75
2022-10-03T20:09:29.526Z,2.38
2022-10-03T20:12:42.909Z,5.32
2022-10-03T20:15:50.724Z,3.03
2022-10-03T20:18:56.889Z,1.85
2022-10-03T20:22:05.435Z,1.40
2022-10-03T20:25:21.071Z,2.40
2022-10-03T20:28:32.571Z,1.63
2022-10-03T20:31:39.214Z,2.20
2022-10-03T20:34:47.821Z,2.15
2022-10-03T20:37:55.664Z,3.58
2022-10-03T20:41:03.571Z,3.15
2022-10-03T20:44:16.571Z,3.03
2022-10-03T20:47:29.986Z,2.45
2022-10-03T20:50:36.757Z,5.00
2022-10-03T20:53:45.478Z,7.10
2022-10-03T21:00:01.038Z,2.00
2022-10-03T21:03:10.142Z,4.85
2022-10-03T21:06:21.051Z,1.55
2022-10-03T21:09:33.125Z,1.33
2022-10-03T21:12:40.451Z,3.20
2022-10-03T21:15:51.210Z,4.07
2022-10-03T21:18:59.560Z,3.67
2022-10-03T21:22:05.989Z,1.92
2022-10-03T21:25:19.326Z,5.80
2022-10-03T21:28:26.342Z,1.50
2022-10-03T21:31:40.098Z,4.70
2022-10-03T21:34:48.727Z,3.88
2022-10-03T21:41:09.728Z,2.72
2022-10-03T21:44:19.498Z,3.55
2022-10-03T21:47:31.865Z,4.28
2022-10-03T21:50:39.043Z,5.07
2022-10-03T21:53:49.898Z,4.68
2022-10-03T21:56:59.453Z,3.33
2022-10-03T22:00:13.802Z,2.92
2022-10-03T22:03:24.429Z,3.88
2022-10-03T22:06:30.614Z,3.80
2022-10-03T22:09:35.823Z,4.88
2022-10-03T22:12:44.671Z,2.30
2022-10-03T22:15:52.460Z,3.58
2022-10-03T22:19:08.285Z,2.63
2022-10-03T22:22:19.336Z,5.03
2022-10-03T22:25:31.841Z,3.85
2022-10-03T22:28:44.386Z,6.47
2022-10-03T22:31:52.412Z,4.45
2022-10-03T22:35:03.893Z,3.70
2022-10-03T22:38:10.219Z,4.80
2022-10-03T22:41:17.546Z,2.10
2022-10-03T22:44:25.448Z,4.50
2022-10-03T22:47:31.879Z,3.10
2022-10-03T22:50:41.906Z,3.33
2022-10-03T22:53:49.555Z,4.20
2022-10-03T22:56:56.158Z,3.67
2022-10-03T23:00:04.761Z,5.07
2022-10-03T23:03:11.325Z,4.85
2022-10-03T23:06:34.740Z,6.28
2022-10-03T23:09:47.125Z,4.07
2022-10-03T23:12:56.934Z,3.08
2022-10-03T23:16:07.386Z,3.22
2022-10-03T23:19:19.086Z,3.92
2022-10-03T23:22:28.461Z,5.43
2022-10-03T23:25:36.040Z,4.78
2022-10-03T23:28:49.887Z,3.30
2022-10-03T23:31:59.077Z,5.85
2022-10-03T23:35:11.956Z,2.95
2022-10-03T23:38:37.651Z,4.53
2022-10-03T23:41:58.275Z,3.97
2022-10-03T23:45:05.754Z,4.47
2022-10-03T23:48:13.806Z,8.35
2022-10-03T23:51:21.387Z,3.00
2022-10-03T23:54:26.853Z,5.47
2022-10-03T23:57:37.455Z,4.65
